createdAt,value
2022-10-17T00:01:30.478Z,141.00
2022-10-17T00:03:57.145Z,142.77
2022-10-17T00:06:24.935Z,148.00
2022-10-17T00:08:51.596Z,138.48
2022-10-17T00:11:21.733Z,138.75
2022-10-17T00:13:50.328Z,138.48
2022-10-17T00:16:28.499Z,149.18
2022-10-17T00:18:55.277Z,145.75
2022-10-17T00:21:23.987Z,141.43
2022-10-17T00:23:50.769Z,142.55
2022-10-17T00:26:18.265Z,143.65
2022-10-17T00:28:49.620Z,149.30
2022-10-17T00:31:19.076Z,141.77
2022-10-17T00:33:46.228Z,139.10
2022-10-17T00:36:21.643Z,138.18
2022-10-17T00:38:51.315Z,137.27
2022-10-17T00:41:20.972Z,138.48
2022-10-17T00:43:55.638Z,141.70
2022-10-17T00:46:24.072Z,138.98
2022-10-17T00:48:53.960Z,151.63
2022-10-17T00:51:26.796Z,143.30
2022-10-17T00:53:53.641Z,146.35
2022-10-17T00:56:21.519Z,139.10
2022-10-17T00:58:48.562Z,141.50
2022-10-17T01:01:15.666Z,144.98
2022-10-17T01:03:43.343Z,141.85
2022-10-17T01:06:09.974Z,140.75
2022-10-17T01:08:36.634Z,139.80
2022-10-17T01:11:23.240Z,149.55
2022-10-17T01:13:56.538Z,139.77
2022-10-17T01:16:44.943Z,138.10
2022-10-17T01:19:39.794Z,146.10
2022-10-17T01:22:48.091Z,137.52
2022-10-17T01:25:20.537Z,136.85
2022-10-17T01:28:03.403Z,140.70
2022-10-17T01:30:45.241Z,143.55
2022-10-17T01:33:35.451Z,141.07
2022-10-17T01:36:11.565Z,149.40
2022-10-17T01:41:32.954Z,140.93
2022-10-17T01:44:07.813Z,137.68
2022-10-17T01:46:41.085Z,141.07
2022-10-17T01:49:13.141Z,137.57
2022-10-17T01:51:51.270Z,138.55
2022-10-17T01:54:24.590Z,138.30
2022-10-17T01:56:57.442Z,136.65
2022-10-17T01:59:31.240Z,145.45
2022-10-17T02:01:59.356Z,141.95
2022-10-17T02:04:26.295Z,138.48
2022-10-17T02:06:52.939Z,136.80
2022-10-17T02:09:25.339Z,138.45
2022-10-17T02:12:01.220Z,140.07
2022-10-17T02:14:46.805Z,135.45
2022-10-17T02:17:38.420Z,134.57
2022-10-17T02:20:21.907Z,135.63
2022-10-17T02:23:27.066Z,145.93
2022-10-17T02:26:12.466Z,136.15
2022-10-17T02:28:54.693Z,136.38
2022-10-17T02:31:30.939Z,136.65
2022-10-17T02:34:10.119Z,143.10
2022-10-17T02:36:40.440Z,139.77
2022-10-17T02:39:08.991Z,145.07
2022-10-17T02:41:38.328Z,138.88
2022-10-17T02:44:06.961Z,135.45
2022-10-17T02:46:35.195Z,142.02
2022-10-17T02:49:23.382Z,138.90
2022-10-17T02:52:00.695Z,136.30
2022-10-17T02:54:39.017Z,143.82
2022-10-17T02:57:25.119Z,135.95
2022-10-17T02:59:52.426Z,138.88
2022-10-17T03:02:19.276Z,134.25
2022-10-17T03:04:47.208Z,136.32
2022-10-17T03:07:15.145Z,137.65
2022-10-17T03:09:41.822Z,144.82
2022-10-17T03:12:08.577Z,136.95
2022-10-17T03:14:35.884Z,139.57
2022-10-17T03:17:03.700Z,137.25
2022-10-17T03:19:30.831Z,141.90
2022-10-17T03:21:57.509Z,135.00
2022-10-17T03:24:24.272Z,136.65
2022-10-17T03:26:50.903Z,136.48
2022-10-17T03:29:17.915Z,137.32
2022-10-17T03:31:44.924Z,138.40
2022-10-17T03:34:12.286Z,140.07
2022-10-17T03:36:39.230Z,134.98
2022-10-17T03:39:06.258Z,135.73
2022-10-17T03:41:33.526Z,145.45
2022-10-17T03:44:00.252Z,134.25
2022-10-17T03:46:27.521Z,136.93
2022-10-17T03:48:56.291Z,140.25
2022-10-17T03:51:22.994Z,140.77
2022-10-17T03:53:54.186Z,135.88
2022-10-17T03:56:24.177Z,136.73
2022-10-17T03:58:59.077Z,132.75
2022-10-17T04:01:27.465Z,135.88
2022-10-17T04:03:56.376Z,131.90
2022-10-17T04:06:23.780Z,135.32
2022-10-17T04:08:50.783Z,132.73
2022-10-17T04:11:23.813Z,133.30
2022-10-17T04:13:55.711Z,129.45
2022-10-17T04:16:23.587Z,139.10
2022-10-17T04:18:59.732Z,134.48
2022-10-17T04:21:30.049Z,134.00
2022-10-17T04:24:01.258Z,134.07
2022-10-17T04:27:00.169Z,133.07
2022-10-17T04:29:29.773Z,136.95
2022-10-17T04:32:05.218Z,143.03
2022-10-17T04:34:40.827Z,126.20
2022-10-17T04:37:07.636Z,134.38
2022-10-17T04:39:35.124Z,135.25
2022-10-17T04:42:01.728Z,129.48
2022-10-17T04:44:31.027Z,139.52
2022-10-17T04:46:58.612Z,127.25
2022-10-17T04:49:26.237Z,144.85
2022-10-17T04:51:57.230Z,135.55
2022-10-17T04:54:32.421Z,129.55
2022-10-17T04:57:06.548Z,137.73
2022-10-17T04:59:33.544Z,135.23
2022-10-17T05:02:20.430Z,141.48
2022-10-17T05:04:47.310Z,133.65
2022-10-17T05:07:14.970Z,128.77
2022-10-17T05:09:47.484Z,141.40
2022-10-17T05:12:15.611Z,135.60
2022-10-17T05:14:44.719Z,134.48
2022-10-17T05:17:11.470Z,143.25
2022-10-17T05:19:38.847Z,142.82
2022-10-17T05:22:06.789Z,132.48
2022-10-17T05:24:33.454Z,134.70
2022-10-17T05:27:00.085Z,133.70
2022-10-17T05:29:26.738Z,142.80
2022-10-17T05:34:35.056Z,145.60
2022-10-17T05:37:01.809Z,132.70
2022-10-17T05:39:28.932Z,133.10
2022-10-17T05:41:56.992Z,134.80
2022-10-17T05:44:23.922Z,135.48
2022-10-17T05:46:54.851Z,142.82
2022-10-17T05:49:32.550Z,140.32
2022-10-17T05:52:00.467Z,135.75
2022-10-17T05:54:28.242Z,132.73
2022-10-17T05:56:56.294Z,139.50
2022-10-17T05:59:27.529Z,142.73
2022-10-17T06:02:00.277Z,143.13
2022-10-17T06:04:27.886Z,139.40
2022-10-17T06:06:56.370Z,143.65
2022-10-17T06:09:24.008Z,137.98
2022-10-17T06:11:53.427Z,134.90
2022-10-17T06:14:20.516Z,131.73
2022-10-17T06:16:50.184Z,141.73
2022-10-17T06:19:17.031Z,138.63
2022-10-17T06:21:43.755Z,137.73
2022-10-17T06:24:15.416Z,139.65
2022-10-17T06:26:42.966Z,136.90
2022-10-17T06:29:12.105Z,140.02
2022-10-17T06:31:45.076Z,142.50
2022-10-17T06:34:11.876Z,140.10
2022-10-17T06:36:39.887Z,139.80
2022-10-17T06:39:07.014Z,138.15
2022-10-17T06:41:41.098Z,150.77
2022-10-17T06:44:11.271Z,146.48
2022-10-17T06:46:57.050Z,148.30
2022-10-17T06:49:24.085Z,149.90
2022-10-17T06:51:55.635Z,141.18
2022-10-17T06:54:30.277Z,141.63
2022-10-17T06:57:27.998Z,143.35
2022-10-17T07:00:15.230Z,141.85
2022-10-17T07:02:49.024Z,140.85
2022-10-17T07:05:15.776Z,146.85
2022-10-17T07:07:44.751Z,150.95
2022-10-17T07:10:13.091Z,135.15
2022-10-17T07:12:40.788Z,143.18
2022-10-17T07:15:08.098Z,146.38
2022-10-17T07:17:34.828Z,154.38
2022-10-17T07:20:01.714Z,148.85
2022-10-17T07:22:31.801Z,152.68
2022-10-17T07:24:58.859Z,146.98
2022-10-17T07:27:42.594Z,143.45
2022-10-17T07:30:10.351Z,148.75
2022-10-17T07:32:39.519Z,147.63
2022-10-17T07:35:12.720Z,155.15
2022-10-17T07:37:41.731Z,148.40
2022-10-17T07:40:09.258Z,150.38
2022-10-17T07:45:10.734Z,148.38
2022-10-17T07:47:37.508Z,151.32
2022-10-17T07:50:07.500Z,153.27
2022-10-17T07:52:34.331Z,158.52
2022-10-17T07:55:00.984Z,153.57
2022-10-17T07:57:27.745Z,158.35
2022-10-17T07:59:54.623Z,162.23
2022-10-17T08:02:26.183Z,157.63
2022-10-17T08:04:53.806Z,160.52
2022-10-17T08:07:25.304Z,153.07
2022-10-17T08:09:55.193Z,151.57
2022-10-17T08:12:22.168Z,151.88
2022-10-17T08:14:49.191Z,152.95
2022-10-17T08:17:15.925Z,154.70
2022-10-17T08:19:42.576Z,149.93
2022-10-17T08:22:09.389Z,161.52
2022-10-17T08:24:36.067Z,154.48
2022-10-17T08:27:04.001Z,155.40
2022-10-17T08:29:32.788Z,166.38
2022-10-17T08:32:01.107Z,164.05
2022-10-17T08:34:28.233Z,161.70
2022-10-17T08:36:54.852Z,159.80
2022-10-17T08:39:21.481Z,160.40
2022-10-17T08:42:14.975Z,159.23
2022-10-17T08:45:11.772Z,156.05
2022-10-17T08:47:45.344Z,158.30
2022-10-17T08:50:24.105Z,160.73
2022-10-17T08:53:02.861Z,170.30
2022-10-17T08:55:37.832Z,170.52
2022-10-17T08:58:24.942Z,160.05
2022-10-17T09:00:56.583Z,155.73
2022-10-17T09:03:34.871Z,164.02
2022-10-17T09:06:20.628Z,162.82
2022-10-17T09:09:04.441Z,167.65
2022-10-17T09:11:37.085Z,163.60
2022-10-17T09:14:21.727Z,170.18
2022-10-17T09:17:03.530Z,166.70
2022-10-17T09:19:34.893Z,168.20
2022-10-17T09:22:10.416Z,164.05
2022-10-17T09:24:55.514Z,165.68
2022-10-17T09:27:32.547Z,165.63
2022-10-17T09:30:33.465Z,163.63
2022-10-17T09:33:35.982Z,169.85
2022-10-17T09:36:44.004Z,164.07
2022-10-17T09:39:19.896Z,165.13
2022-10-17T09:41:51.460Z,166.95
2022-10-17T09:44:24.569Z,163.35
2022-10-17T09:46:54.195Z,167.50
2022-10-17T09:49:30.477Z,162.25
2022-10-17T09:51:57.583Z,159.70
2022-10-17T09:54:54.834Z,165.70
2022-10-17T09:57:22.362Z,161.82
2022-10-17T10:00:04.701Z,164.77
2022-10-17T10:02:40.926Z,162.40
2022-10-17T10:05:20.021Z,162.93
2022-10-17T10:08:03.159Z,164.50
2022-10-17T10:10:31.903Z,169.38
2022-10-17T10:13:12.220Z,171.07
2022-10-17T10:15:50.119Z,163.00
2022-10-17T10:21:10.272Z,171.05
2022-10-17T10:23:40.360Z,172.07
2022-10-17T10:26:27.374Z,166.38
2022-10-17T10:29:01.630Z,166.70
2022-10-17T10:31:38.831Z,171.02
2022-10-17T10:34:20.448Z,167.55
2022-10-17T10:36:50.178Z,168.52
2022-10-17T10:39:31.960Z,173.98
2022-10-17T10:42:00.581Z,165.70
2022-10-17T10:44:31.143Z,166.95
2022-10-17T10:47:20.062Z,167.85
2022-10-17T10:49:47.333Z,164.20
2022-10-17T10:52:24.073Z,164.13
2022-10-17T10:54:59.382Z,172.45
2022-10-17T10:57:31.130Z,168.90
2022-10-17T11:00:06.391Z,168.57
2022-10-17T11:03:26.465Z,164.13
2022-10-17T11:05:59.155Z,173.15
2022-10-17T11:08:42.437Z,165.95
2022-10-17T11:11:28.504Z,172.07
2022-10-17T11:16:38.180Z,163.90
2022-10-17T11:19:25.719Z,168.05
2022-10-17T11:21:55.733Z,167.05
2022-10-17T11:24:30.465Z,166.10
2022-10-17T11:27:01.504Z,163.83
2022-10-17T11:29:31.495Z,166.27
2022-10-17T11:32:03.264Z,168.15
2022-10-17T11:34:36.281Z,165.77
2022-10-17T11:37:12.572Z,166.27
2022-10-17T11:39:39.237Z,174.52
2022-10-17T11:42:10.776Z,167.30
2022-10-17T11:44:40.580Z,168.80
2022-10-17T11:47:28.250Z,168.45
2022-10-17T11:53:00.155Z,168.05
2022-10-17T11:55:29.966Z,168.13
2022-10-17T11:58:33.209Z,167.02
2022-10-17T12:01:08.856Z,166.52
2022-10-17T12:03:54.135Z,164.02
2022-10-17T12:06:35.402Z,166.85
2022-10-17T12:09:12.322Z,169.25
2022-10-17T12:11:58.477Z,169.07
2022-10-17T12:14:39.109Z,169.13
2022-10-17T12:17:22.640Z,171.05
2022-10-17T12:19:49.540Z,165.27
2022-10-17T12:22:21.362Z,172.10
2022-10-17T12:25:18.964Z,168.80
2022-10-17T12:27:48.259Z,167.73
2022-10-17T12:30:24.153Z,173.95
2022-10-17T12:33:06.585Z,172.20
2022-10-17T12:35:37.002Z,171.18
2022-10-17T12:38:14.232Z,174.52
2022-10-17T12:40:48.444Z,170.05
2022-10-17T12:43:15.557Z,168.83
2022-10-17T12:45:48.363Z,171.18
2022-10-17T12:48:33.304Z,168.93
2022-10-17T12:54:14.944Z,170.13
2022-10-17T12:56:46.719Z,167.50
2022-10-17T12:59:26.431Z,173.13
2022-10-17T13:01:57.691Z,168.98
2022-10-17T13:04:25.004Z,174.40
2022-10-17T13:06:54.422Z,168.00
2022-10-17T13:09:27.342Z,175.43
2022-10-17T13:11:55.412Z,176.63
2022-10-17T13:14:23.381Z,171.55
2022-10-17T13:16:56.815Z,174.52
2022-10-17T13:19:51.340Z,168.30
2022-10-17T13:22:27.301Z,172.55
2022-10-17T13:25:25.065Z,172.13
2022-10-17T13:27:53.754Z,174.18
2022-10-17T13:30:32.625Z,169.68
2022-10-17T13:33:00.710Z,173.20
2022-10-17T13:35:48.572Z,172.45
2022-10-17T13:40:50.609Z,173.43
2022-10-17T13:43:21.720Z,174.80
2022-10-17T13:45:51.523Z,171.43
2022-10-17T13:48:21.203Z,170.13
2022-10-17T13:50:50.858Z,168.80
2022-10-17T13:53:35.231Z,178.02
2022-10-17T13:56:29.903Z,166.52
2022-10-17T13:58:59.432Z,167.30
2022-10-17T14:01:28.589Z,166.73
2022-10-17T14:04:07.865Z,174.63
2022-10-17T14:06:47.553Z,167.05
2022-10-17T14:09:30.174Z,169.13
2022-10-17T14:12:01.888Z,171.05
2022-10-17T14:14:32.148Z,169.05
2022-10-17T14:17:21.570Z,165.80
2022-10-17T14:20:06.521Z,167.82
2022-10-17T14:22:39.942Z,169.68
2022-10-17T14:25:26.704Z,168.70
2022-10-17T14:27:58.116Z,173.00
2022-10-17T14:30:51.634Z,169.40
2022-10-17T14:33:36.393Z,169.18
2022-10-17T14:36:05.561Z,168.35
2022-10-17T14:38:32.332Z,167.50
2022-10-17T14:41:30.263Z,167.32
2022-10-17T14:43:56.946Z,171.05
2022-10-17T14:46:24.531Z,170.23
2022-10-17T14:49:05.493Z,167.75
2022-10-17T14:51:44.689Z,171.63
2022-10-17T14:54:25.033Z,167.98
2022-10-17T14:56:53.982Z,170.73
2022-10-17T14:59:48.493Z,169.52
2022-10-17T15:02:11.473Z,174.05
2022-10-17T15:04:38.085Z,171.77
2022-10-17T15:07:04.772Z,166.25
2022-10-17T15:09:31.729Z,169.27
2022-10-17T15:12:02.938Z,169.02
2022-10-17T15:14:29.569Z,168.18
2022-10-17T15:16:56.286Z,169.00
2022-10-17T15:19:22.900Z,166.90
2022-10-17T15:21:49.481Z,167.60
2022-10-17T15:24:16.183Z,168.75
2022-10-17T15:26:42.920Z,169.85
2022-10-17T15:29:14.850Z,174.82
2022-10-17T15:31:41.731Z,179.13
2022-10-17T15:34:08.306Z,172.20
2022-10-17T15:36:41.292Z,169.50
2022-10-17T15:39:10.104Z,179.70
2022-10-17T15:41:36.818Z,179.82
2022-10-17T15:44:03.755Z,173.07
2022-10-17T15:46:35.521Z,173.82
2022-10-17T15:49:07.578Z,172.73
2022-10-17T15:51:34.315Z,175.23
2022-10-17T15:54:01.755Z,174.73
2022-10-17T15:56:37.528Z,176.80
2022-10-17T16:01:33.706Z,171.13
2022-10-17T16:04:00.674Z,168.52
2022-10-17T16:06:27.393Z,173.43
2022-10-17T16:08:54.080Z,177.38
2022-10-17T16:11:34.043Z,178.90
2022-10-17T16:14:03.118Z,180.95
2022-10-17T16:16:30.083Z,174.07
2022-10-17T16:18:57.109Z,178.35
2022-10-17T16:21:27.653Z,181.75
2022-10-17T16:23:54.595Z,180.18
2022-10-17T16:26:21.826Z,172.55
2022-10-17T16:28:48.696Z,170.77
2022-10-17T16:31:25.873Z,174.75
2022-10-17T16:33:55.156Z,165.98
2022-10-17T16:36:22.122Z,174.85
2022-10-17T16:38:49.900Z,176.48
2022-10-17T16:41:25.549Z,180.07
2022-10-17T16:43:54.586Z,174.80
2022-10-17T16:46:22.377Z,175.10
2022-10-17T16:48:49.716Z,177.23
2022-10-17T16:51:18.854Z,176.52
2022-10-17T16:53:47.352Z,177.13
2022-10-17T16:56:16.504Z,176.10
2022-10-17T16:58:43.453Z,174.70
2022-10-17T17:01:13.217Z,172.43
2022-10-17T17:03:43.092Z,175.50
2022-10-17T17:06:14.906Z,172.48
2022-10-17T17:08:42.943Z,171.98
2022-10-17T17:11:12.009Z,172.00
2022-10-17T17:13:39.500Z,172.50
2022-10-17T17:16:10.412Z,174.32
2022-10-17T17:18:37.379Z,174.23
2022-10-17T17:21:06.138Z,174.90
2022-10-17T17:23:35.755Z,174.68
2022-10-17T17:26:09.204Z,173.80
2022-10-17T17:28:36.363Z,173.00
2022-10-17T17:31:10.478Z,174.75
2022-10-17T17:33:39.322Z,170.68
2022-10-17T17:36:06.712Z,175.45
2022-10-17T17:38:35.801Z,176.43
2022-10-17T17:41:03.859Z,183.68
2022-10-17T17:43:30.556Z,178.10
2022-10-17T17:45:57.178Z,175.98
2022-10-17T17:48:23.879Z,177.40
2022-10-17T17:50:50.497Z,175.63
2022-10-17T17:53:18.209Z,182.35
2022-10-17T17:55:45.386Z,181.68
2022-10-17T17:58:12.564Z,185.05
2022-10-17T18:00:40.624Z,180.18
2022-10-17T18:03:07.503Z,190.52
2022-10-17T18:05:34.595Z,186.95
2022-10-17T18:08:01.295Z,185.88
2022-10-17T18:10:29.406Z,184.50
2022-10-17T18:12:56.130Z,172.50
2022-10-17T18:15:22.910Z,179.70
2022-10-17T18:17:49.621Z,179.63
2022-10-17T18:20:16.307Z,169.75
2022-10-17T18:22:42.959Z,175.98
2022-10-17T18:25:09.819Z,175.48
2022-10-17T18:27:36.708Z,176.20
2022-10-17T18:30:04.240Z,178.35
2022-10-17T18:32:31.695Z,174.82
2022-10-17T18:34:58.641Z,169.68
2022-10-17T18:37:25.350Z,165.75
2022-10-17T18:39:54.233Z,174.07
2022-10-17T18:42:21.012Z,170.25
2022-10-17T18:44:47.953Z,168.57
2022-10-17T18:47:14.590Z,173.48
2022-10-17T18:49:41.491Z,168.18
2022-10-17T18:52:08.377Z,177.60
2022-10-17T18:54:35.113Z,160.07
2022-10-17T18:57:01.823Z,172.48
2022-10-17T18:59:28.530Z,163.60
2022-10-17T19:01:55.344Z,164.73
2022-10-17T19:04:22.054Z,166.85
2022-10-17T19:06:48.724Z,165.40
2022-10-17T19:09:16.044Z,166.57
2022-10-17T19:11:43.214Z,165.85
2022-10-17T19:14:14.895Z,164.55
2022-10-17T19:16:44.637Z,162.75
2022-10-17T19:19:14.233Z,167.85
2022-10-17T19:21:41.231Z,170.20
2022-10-17T19:24:13.952Z,171.70
2022-10-17T19:26:41.256Z,166.55
2022-10-17T19:29:08.078Z,162.60
2022-10-17T19:31:41.487Z,169.15
2022-10-17T19:34:08.108Z,165.32
2022-10-17T19:36:35.330Z,161.57
2022-10-17T19:39:04.693Z,167.27
2022-10-17T19:41:31.739Z,164.60
2022-10-17T19:44:00.197Z,163.50
2022-10-17T19:46:28.555Z,163.15
2022-10-17T19:48:55.571Z,162.85
2022-10-17T19:51:26.527Z,162.25
2022-10-17T19:53:55.686Z,161.90
2022-10-17T19:56:24.646Z,161.35
2022-10-17T19:58:51.964Z,163.50
2022-10-17T20:01:22.100Z,158.52
2022-10-17T20:03:49.335Z,153.82
2022-10-17T20:06:17.025Z,168.57
2022-10-17T20:08:43.846Z,169.65
2022-10-17T20:11:19.857Z,162.90
2022-10-17T20:13:47.187Z,167.50
2022-10-17T20:16:21.389Z,166.75
2022-10-17T20:18:53.086Z,166.45
2022-10-17T20:21:23.320Z,158.70
2022-10-17T20:23:50.724Z,163.27
2022-10-17T20:26:37.439Z,160.05
2022-10-17T20:29:10.701Z,159.77
2022-10-17T20:31:38.319Z,165.10
2022-10-17T20:34:05.061Z,160.27
2022-10-17T20:36:32.371Z,156.07
2022-10-17T20:38:59.401Z,161.40
2022-10-17T20:41:26.574Z,157.35
2022-10-17T20:43:54.809Z,156.13
2022-10-17T20:46:35.416Z,159.40
2022-10-17T20:49:03.809Z,163.98
2022-10-17T20:51:30.524Z,166.13
2022-10-17T20:56:30.679Z,161.80
2022-10-17T20:59:00.829Z,161.18
2022-10-17T21:01:29.196Z,162.90
2022-10-17T21:03:58.842Z,152.13
2022-10-17T21:06:27.680Z,158.43
2022-10-17T21:08:55.858Z,158.07
2022-10-17T21:11:27.927Z,161.88
2022-10-17T21:14:12.731Z,155.05
2022-10-17T21:16:40.249Z,164.18
2022-10-17T21:19:06.971Z,163.75
2022-10-17T21:21:39.767Z,163.18
2022-10-17T21:24:12.423Z,157.18
2022-10-17T21:26:39.254Z,163.68
2022-10-17T21:29:07.253Z,161.73
2022-10-17T21:31:36.380Z,159.52
2022-10-17T21:34:20.082Z,159.13
2022-10-17T21:36:47.464Z,158.85
2022-10-17T21:39:15.381Z,166.07
2022-10-17T21:41:43.041Z,156.13
2022-10-17T21:44:18.986Z,165.23
2022-10-17T21:49:15.110Z,167.30
2022-10-17T21:51:42.350Z,168.05
2022-10-17T21:54:09.089Z,161.90
2022-10-17T21:56:36.474Z,162.32
2022-10-17T21:59:04.860Z,164.15
2022-10-17T22:01:37.188Z,157.95
2022-10-17T22:04:07.585Z,157.80
2022-10-17T22:06:40.193Z,163.93
2022-10-17T22:09:22.633Z,165.93
2022-10-17T22:11:53.083Z,170.32
2022-10-17T22:14:21.139Z,166.05
2022-10-17T22:16:49.019Z,155.73
2022-10-17T22:19:19.060Z,161.25
2022-10-17T22:21:46.003Z,159.68
2022-10-17T22:24:16.592Z,160.02
2022-10-17T22:26:44.609Z,159.02
2022-10-17T22:29:11.924Z,162.85
2022-10-17T22:31:38.929Z,156.63
2022-10-17T22:34:06.482Z,161.88
2022-10-17T22:36:34.686Z,164.35
2022-10-17T22:39:01.681Z,163.55
2022-10-17T22:41:28.498Z,161.77
2022-10-17T22:43:55.109Z,165.05
2022-10-17T22:46:21.880Z,165.65
2022-10-17T22:48:48.644Z,155.18
2022-10-17T22:51:15.397Z,161.35
2022-10-17T22:53:42.064Z,161.48
2022-10-17T22:56:14.988Z,157.27
2022-10-17T22:58:42.002Z,157.15
2022-10-17T23:01:13.400Z,159.02
2022-10-17T23:03:40.091Z,159.25
2022-10-17T23:06:07.341Z,157.73
2022-10-17T23:08:34.212Z,156.23
2022-10-17T23:11:00.808Z,155.30
2022-10-17T23:13:27.552Z,156.73
2022-10-17T23:15:56.193Z,153.18
2022-10-17T23:18:24.434Z,153.07
2022-10-17T23:20:51.592Z,152.32
2022-10-17T23:23:19.332Z,155.38
2022-10-17T23:25:46.208Z,152.55
2022-10-17T23:28:13.089Z,156.80
2022-10-17T23:30:40.258Z,162.25
2022-10-17T23:33:07.261Z,160.68
2022-10-17T23:35:34.335Z,160.25
2022-10-17T23:38:01.082Z,163.18
2022-10-17T23:40:28.155Z,162.02
2022-10-17T23:42:54.817Z,152.07
2022-10-17T23:45:21.813Z,152.68
2022-10-17T23:47:48.594Z,153.18
2022-10-17T23:50:16.373Z,153.10
2022-10-17T23:52:43.127Z,158.98
2022-10-17T23:55:10.006Z,154.60
2022-10-17T23:57:36.651Z,163.88
